Time;durP1;ratioP1;P1;durP2;ratioP2;P2;SDS_P1;SDS_P2;PMS_P1;PMS_P2;Temp;Humidity;BMP_temperature;BMP_pressure;BME280_temperature;BME280_humidity;BME280_pressure;Samples;Min_cycle;Max_cycle;Signal;HPM_P1;HPM_P2
2023/01/15 00:00:59;;;;;;;0.27;0.27;;;13.30;99.90;;;;;;5045433;28;20652;-66
2023/01/15 00:03:26;;;;;;;0.30;0.30;;;13.30;99.90;;;;;;5048574;28;20204;-67
2023/01/15 00:05:53;;;;;;;0.40;0.40;;;13.30;99.90;;;;;;5040012;28;20668;-65
2023/01/15 00:08:20;;;;;;;0.30;0.30;;;13.40;99.90;;;;;;5052563;28;20598;-66
2023/01/15 00:10:47;;;;;;;0.30;0.30;;;13.40;99.90;;;;;;5041717;28;20683;-68
2023/01/15 00:13:13;;;;;;;0.32;0.32;;;13.40;99.90;;;;;;5047338;28;20206;-66
2023/01/15 00:15:40;;;;;;;0.30;0.30;;;13.40;99.90;;;;;;5044440;28;20261;-67
2023/01/15 00:18:08;;;;;;;0.20;0.20;;;13.40;99.90;;;;;;5043869;28;20600;-67
2023/01/15 00:20:35;;;;;;;0.20;0.20;;;13.50;99.90;;;;;;5039157;28;20223;-66
2023/01/15 00:23:02;;;;;;;0.30;0.30;;;13.50;99.90;;;;;;5043096;28;20204;-66
2023/01/15 00:28:14;;;;;;;0.30;0.30;;;13.60;99.90;;;;;;5035130;28;20226;-66
2023/01/15 00:30:41;;;;;;;0.10;0.10;;;13.60;99.90;;;;;;5037939;28;20205;-68
2023/01/15 00:33:10;;;;;;;0.20;0.20;;;13.60;99.90;;;;;;5033654;28;20795;-65
2023/01/15 00:35:36;;;;;;;0.17;0.17;;;13.50;99.90;;;;;;5038504;28;20553;-66
2023/01/15 00:38:03;;;;;;;0.40;0.20;;;13.50;99.90;;;;;;5038218;28;20225;-65
2023/01/15 00:40:30;;;;;;;0.20;0.20;;;13.50;99.90;;;;;;5031456;28;20228;-68
2023/01/15 00:42:57;;;;;;;0.17;0.17;;;13.50;99.90;;;;;;5033043;28;20663;-67
2023/01/15 00:45:24;;;;;;;0.10;0.10;;;13.50;99.90;;;;;;5033373;28;20208;-65
2023/01/15 00:47:50;;;;;;;0.23;0.23;;;13.40;99.90;;;;;;5032296;28;20323;-64
2023/01/15 00:50:19;;;;;;;0.20;0.20;;;13.40;99.90;;;;;;5032850;28;20207;-65
2023/01/15 00:52:45;;;;;;;0.37;0.37;;;13.40;99.90;;;;;;5034157;28;20220;-67
2023/01/15 00:55:12;;;;;;;0.20;0.20;;;13.40;99.90;;;;;;5030662;28;20204;-65
2023/01/15 00:57:39;;;;;;;0.20;0.20;;;13.40;99.90;;;;;;5036877;28;20252;-66
2023/01/15 01:00:07;;;;;;;0.20;0.20;;;13.40;99.90;;;;;;5040971;28;20220;-65
2023/01/15 01:02:34;;;;;;;0.30;0.30;;;13.40;99.90;;;;;;5036787;28;20201;-65
2023/01/15 01:05:01;;;;;;;0.20;0.20;;;13.40;99.90;;;;;;5033296;28;20296;-66
2023/01/15 01:07:29;;;;;;;0.20;0.20;;;13.40;99.90;;;;;;5034479;28;20228;-66
2023/01/15 01:09:56;;;;;;;0.13;0.13;;;13.60;99.90;;;;;;5036591;28;20298;-65
2023/01/15 01:12:23;;;;;;;0.10;0.10;;;13.50;99.90;;;;;;5031495;28;20658;-65
2023/01/15 01:14:50;;;;;;;0.30;0.30;;;13.40;99.90;;;;;;5031827;28;20224;-63
2023/01/15 01:17:17;;;;;;;0.13;0.13;;;13.40;99.90;;;;;;5029391;28;20224;-66
2023/01/15 01:19:43;;;;;;;0.23;0.23;;;13.40;99.90;;;;;;5032119;28;20224;-65
2023/01/15 01:22:10;;;;;;;0.30;0.30;;;13.40;99.90;;;;;;5030342;28;20219;-65
2023/01/15 01:24:39;;;;;;;0.27;0.27;;;13.40;99.90;;;;;;5029963;28;20208;-65
2023/01/15 01:27:05;;;;;;;0.13;0.13;;;13.40;99.90;;;;;;5038043;28;20220;-66
2023/01/15 01:29:32;;;;;;;0.20;0.20;;;13.40;99.90;;;;;;5036094;28;20205;-65
2023/01/15 01:31:59;;;;;;;0.10;0.10;;;13.50;99.90;;;;;;5049250;28;20200;-66
2023/01/15 01:34:26;;;;;;;0.20;0.20;;;13.50;99.90;;;;;;5036372;28;20295;-66
2023/01/15 01:36:53;;;;;;;0.13;0.13;;;13.50;99.90;;;;;;5030187;28;20243;-67
2023/01/15 01:39:20;;;;;;;0.10;0.10;;;13.60;99.90;;;;;;5029547;28;20572;-66
2023/01/15 01:41:48;;;;;;;0.30;0.30;;;13.50;99.90;;;;;;5033244;28;20549;-68
2023/01/15 01:44:53;;;;;;;0.10;0.10;;;13.60;99.90;;;;;;5032842;28;20201;-64
2023/01/15 01:47:23;;;;;;;0.10;0.10;;;13.60;99.90;;;;;;5059356;28;20219;-66
2023/01/15 01:49:53;;;;;;;0.10;0.10;;;13.60;99.90;;;;;;5061559;28;20199;-66
2023/01/15 01:52:25;;;;;;;0.20;0.20;;;13.60;99.90;;;;;;5060426;28;20203;-65
2023/01/15 01:54:52;;;;;;;0.17;0.17;;;13.60;99.90;;;;;;5061534;28;20217;-65
2023/01/15 01:57:22;;;;;;;0.30;0.30;;;13.60;99.90;;;;;;5058717;28;20648;-67
2023/01/15 01:59:49;;;;;;;0.03;0.03;;;13.60;99.90;;;;;;5063076;28;20227;-67
2023/01/15 02:02:19;;;;;;;0.00;0.00;;;13.70;99.90;;;;;;5055950;28;20204;-66
2023/01/15 02:04:46;;;;;;;0.20;0.20;;;13.70;99.90;;;;;;5072510;28;20203;-66
2023/01/15 02:07:13;;;;;;;0.10;0.10;;;13.70;99.90;;;;;;5058430;28;20227;-67
2023/01/15 02:09:39;;;;;;;0.17;0.17;;;13.70;99.90;;;;;;5063311;28;20203;-66
2023/01/15 02:12:12;;;;;;;0.27;0.27;;;13.60;99.90;;;;;;5062899;28;20209;-65
2023/01/15 02:14:50;;;;;;;0.20;0.20;;;13.80;99.90;;;;;;5061000;28;20221;-65
2023/01/15 02:17:24;;;;;;;0.17;0.17;;;13.70;99.90;;;;;;5053684;28;20219;-67
2023/01/15 02:20:04;;;;;;;0.13;0.13;;;13.60;99.90;;;;;;5057976;28;20247;-65
2023/01/15 02:22:42;;;;;;;0.10;0.10;;;13.70;99.90;;;;;;5060432;28;20558;-65
2023/01/15 02:25:17;;;;;;;0.20;0.20;;;13.70;99.90;;;;;;5059091;28;20204;-66
2023/01/15 02:27:51;;;;;;;0.20;0.20;;;13.70;99.90;;;;;;5054147;28;20219;-67
2023/01/15 02:30:24;;;;;;;0.30;0.30;;;13.70;99.90;;;;;;5045983;28;20226;-66
2023/01/15 02:32:55;;;;;;;0.13;0.13;;;13.70;99.90;;;;;;5063359;28;20214;-65
2023/01/15 02:35:27;;;;;;;0.20;0.20;;;13.70;99.90;;;;;;5056069;28;20578;-66
2023/01/15 02:37:58;;;;;;;0.20;0.20;;;13.70;99.90;;;;;;5066648;28;20258;-65
2023/01/15 02:40:27;;;;;;;0.03;0.03;;;13.70;99.90;;;;;;5066662;28;20225;-65
2023/01/15 02:42:56;;;;;;;0.30;0.30;;;13.60;99.90;;;;;;5065911;28;20213;-65
2023/01/15 02:45:27;;;;;;;0.20;0.20;;;13.60;99.90;;;;;;5059169;28;20199;-67
2023/01/15 02:47:56;;;;;;;0.20;0.20;;;13.70;99.90;;;;;;5066303;28;20227;-67
2023/01/15 02:50:28;;;;;;;0.23;0.23;;;13.60;99.90;;;;;;5066227;28;20202;-67
2023/01/15 02:53:02;;;;;;;0.20;0.20;;;13.60;99.90;;;;;;5083196;28;20290;-66
2023/01/15 02:55:33;;;;;;;0.30;0.30;;;13.60;99.90;;;;;;5082189;28;20245;-67
2023/01/15 02:58:05;;;;;;;0.23;0.23;;;13.60;99.90;;;;;;5079720;28;20698;-66
2023/01/15 03:00:38;;;;;;;0.27;0.27;;;13.50;99.90;;;;;;5081793;28;20215;-66
2023/01/15 03:03:09;;;;;;;0.20;0.20;;;13.60;99.90;;;;;;5084270;28;20266;-65
2023/01/15 03:05:41;;;;;;;0.20;0.20;;;13.60;99.90;;;;;;5064034;28;20212;-67
2023/01/15 03:08:08;;;;;;;0.40;0.40;;;13.50;99.90;;;;;;5071612;28;20242;-66
2023/01/15 03:10:42;;;;;;;0.10;0.10;;;13.60;99.90;;;;;;5066008;28;20203;-68
2023/01/15 03:13:15;;;;;;;0.15;0.15;;;13.50;99.90;;;;;;5073666;28;20557;-66
2023/01/15 03:18:40;;;;;;;0.10;0.10;;;13.50;99.90;;;;;;5059242;28;20265;-66
2023/01/15 03:21:13;;;;;;;0.20;0.20;;;13.50;99.90;;;;;;5065263;28;20219;-66
2023/01/15 03:23:47;;;;;;;0.20;0.20;;;13.50;99.90;;;;;;5065778;28;20210;-67
2023/01/15 03:26:13;;;;;;;0.20;0.20;;;13.50;99.90;;;;;;5061979;28;20203;-67
2023/01/15 03:28:43;;;;;;;0.20;0.20;;;13.50;99.90;;;;;;5066990;28;20223;-66
2023/01/15 03:31:09;;;;;;;0.10;0.10;;;13.50;99.90;;;;;;5062474;28;20208;-66
2023/01/15 03:33:36;;;;;;;0.10;0.10;;;13.50;99.90;;;;;;5067018;28;20203;-66
2023/01/15 03:36:04;;;;;;;0.17;0.10;;;13.50;99.90;;;;;;5063133;28;20203;-66
2023/01/15 03:38:34;;;;;;;0.20;0.20;;;13.50;99.90;;;;;;5066417;28;20233;-66
2023/01/15 03:41:12;;;;;;;0.10;0.10;;;13.60;99.90;;;;;;5062169;28;20223;-65
2023/01/15 03:43:50;;;;;;;0.00;0.00;;;13.60;99.90;;;;;;5059696;28;20199;-66
2023/01/15 03:46:39;;;;;;;0.20;0.20;;;13.50;99.90;;;;;;5053832;28;20207;-65
2023/01/15 03:49:15;;;;;;;0.10;0.10;;;13.50;99.90;;;;;;5061158;28;20238;-66
2023/01/15 03:51:49;;;;;;;0.10;0.10;;;13.50;99.90;;;;;;5064205;28;20210;-65
2023/01/15 03:54:22;;;;;;;0.10;0.10;;;13.50;99.90;;;;;;5049773;28;20205;-66
2023/01/15 03:56:55;;;;;;;0.20;0.20;;;13.50;99.90;;;;;;5061122;28;20224;-64
2023/01/15 03:59:29;;;;;;;0.10;0.10;;;13.50;99.90;;;;;;5051671;28;20863;-67
2023/01/15 04:01:57;;;;;;;0.20;0.20;;;13.50;99.90;;;;;;5061616;28;20223;-67
2023/01/15 04:04:26;;;;;;;0.13;0.13;;;13.50;99.90;;;;;;5063468;28;20210;-66
2023/01/15 04:06:54;;;;;;;0.00;0.00;;;13.50;99.90;;;;;;5062132;28;20228;-66
2023/01/15 04:09:22;;;;;;;0.03;0.03;;;13.50;99.90;;;;;;5062635;28;21028;-67
2023/01/15 04:11:49;;;;;;;0.30;0.30;;;13.50;99.90;;;;;;5063026;28;20203;-66
2023/01/15 04:14:15;;;;;;;0.10;0.10;;;13.40;99.90;;;;;;5057654;28;20207;-65
2023/01/15 04:16:44;;;;;;;0.10;0.10;;;13.50;99.90;;;;;;5060394;28;20219;-67
2023/01/15 04:19:10;;;;;;;0.20;0.20;;;13.30;99.90;;;;;;5060452;28;20199;-66
2023/01/15 04:21:37;;;;;;;0.10;0.10;;;13.20;99.90;;;;;;5065721;28;20826;-66
2023/01/15 04:24:04;;;;;;;0.13;0.13;;;13.30;99.90;;;;;;5061714;28;20210;-67
2023/01/15 04:26:31;;;;;;;0.30;0.30;;;13.20;99.90;;;;;;5059008;28;20619;-67
2023/01/15 04:28:58;;;;;;;0.10;0.10;;;13.10;99.90;;;;;;5066143;28;20203;-65
2023/01/15 04:31:25;;;;;;;0.20;0.20;;;13.10;99.90;;;;;;5059412;28;20206;-66
2023/01/15 04:33:54;;;;;;;0.10;0.10;;;13.10;99.90;;;;;;5066759;28;20728;-66
2023/01/15 04:36:21;;;;;;;0.10;0.10;;;13.10;99.90;;;;;;5052970;28;20531;-66
2023/01/15 04:38:47;;;;;;;0.20;0.20;;;13.10;99.90;;;;;;5068437;28;20583;-67
2023/01/15 04:44:07;;;;;;;0.30;0.30;;;11.90;99.90;;;;;;5044247;28;20203;-65
2023/01/15 04:46:36;;;;;;;0.17;0.17;;;11.10;99.90;;;;;;5050298;28;20203;-65
2023/01/15 04:49:05;;;;;;;0.20;0.20;;;10.30;99.90;;;;;;5052417;28;20442;-66
2023/01/15 04:51:32;;;;;;;0.17;0.17;;;10.10;99.90;;;;;;5070510;28;20360;-67
2023/01/15 04:54:02;;;;;;;0.10;0.10;;;9.90;99.90;;;;;;5070783;28;20234;-66
2023/01/15 04:56:29;;;;;;;1.30;0.20;;;9.60;99.90;;;;;;5049334;28;20199;-66
2023/01/15 04:58:56;;;;;;;0.20;0.20;;;9.50;99.90;;;;;;5060118;28;20196;-67
2023/01/15 05:01:23;;;;;;;0.20;0.20;;;9.50;99.90;;;;;;5056724;28;20217;-67
2023/01/15 05:03:49;;;;;;;0.10;0.10;;;9.50;99.90;;;;;;5062064;28;20200;-67
2023/01/15 05:06:18;;;;;;;0.20;0.20;;;9.50;99.90;;;;;;5049428;28;20196;-67
2023/01/15 05:08:45;;;;;;;1.03;0.20;;;9.60;99.90;;;;;;5061430;28;20259;-67
2023/01/15 05:11:12;;;;;;;0.10;0.10;;;9.40;99.90;;;;;;5058509;28;20302;-66
2023/01/15 05:13:38;;;;;;;0.20;0.20;;;9.40;99.90;;;;;;5056061;28;20302;-67
2023/01/15 05:16:10;;;;;;;0.20;0.20;;;9.40;99.90;;;;;;5061575;28;20304;-64
2023/01/15 05:18:37;;;;;;;0.00;0.00;;;9.30;99.90;;;;;;5063853;28;20747;-65
2023/01/15 05:21:05;;;;;;;0.20;0.20;;;9.30;99.90;;;;;;5061720;28;20227;-66
2023/01/15 05:23:33;;;;;;;0.40;0.40;;;9.30;99.90;;;;;;5057007;28;20226;-65
2023/01/15 05:26:03;;;;;;;0.17;0.17;;;9.20;99.90;;;;;;5061184;28;20662;-64
2023/01/15 05:28:30;;;;;;;0.13;0.13;;;9.10;99.90;;;;;;5053856;28;20224;-65
2023/01/15 05:30:57;;;;;;;0.20;0.20;;;9.00;99.90;;;;;;5058207;28;20200;-65
2023/01/15 05:33:24;;;;;;;0.10;0.10;;;9.00;99.90;;;;;;5061783;28;20375;-66
2023/01/15 05:35:51;;;;;;;0.30;0.30;;;8.90;99.90;;;;;;5061812;28;20203;-66
2023/01/15 05:38:18;;;;;;;0.20;0.20;;;8.90;99.90;;;;;;5060687;28;20216;-65
2023/01/15 05:40:46;;;;;;;0.27;0.27;;;9.00;99.90;;;;;;5062447;28;20312;-66
2023/01/15 05:43:13;;;;;;;0.10;0.10;;;9.00;99.90;;;;;;5052096;28;20211;-67
2023/01/15 05:45:39;;;;;;;0.17;0.17;;;8.90;99.90;;;;;;5064032;28;20211;-67
2023/01/15 05:48:06;;;;;;;0.10;0.10;;;9.10;99.90;;;;;;5060831;28;20318;-66
2023/01/15 05:50:33;;;;;;;0.20;0.20;;;9.20;99.90;;;;;;5064020;28;20191;-67
2023/01/15 05:53:00;;;;;;;0.20;0.20;;;9.30;99.90;;;;;;5063928;28;20199;-67
2023/01/15 05:55:27;;;;;;;0.13;0.13;;;9.20;99.90;;;;;;5073369;28;20215;-66
2023/01/15 05:57:56;;;;;;;0.30;0.30;;;9.20;99.90;;;;;;5073400;28;20318;-66
2023/01/15 06:00:24;;;;;;;0.20;0.20;;;9.20;99.90;;;;;;5070301;28;20204;-67
2023/01/15 06:02:51;;;;;;;0.10;0.10;;;9.20;99.90;;;;;;5076721;28;20234;-66
2023/01/15 06:05:19;;;;;;;0.30;0.30;;;9.20;99.90;;;;;;5062238;28;20316;-66
2023/01/15 06:07:48;;;;;;;0.10;0.10;;;9.20;99.90;;;;;;5073522;28;20998;-65
2023/01/15 06:10:16;;;;;;;0.10;0.10;;;9.10;99.90;;;;;;5063929;28;20234;-65
2023/01/15 06:12:43;;;;;;;0.10;0.10;;;9.10;99.90;;;;;;5067452;28;20207;-65
2023/01/15 06:15:12;;;;;;;0.17;0.17;;;9.10;99.90;;;;;;5068759;28;20217;-66
2023/01/15 06:17:40;;;;;;;0.20;0.20;;;9.10;99.90;;;;;;5063980;28;20227;-67
2023/01/15 06:20:08;;;;;;;0.20;0.20;;;9.00;99.90;;;;;;5064887;28;20284;-66
2023/01/15 06:22:35;;;;;;;0.30;0.30;;;9.00;99.90;;;;;;5067210;28;20226;-65
2023/01/15 06:25:02;;;;;;;0.20;0.20;;;9.00;99.90;;;;;;5060331;28;20200;-65
2023/01/15 06:27:29;;;;;;;0.10;0.10;;;8.90;99.90;;;;;;5059532;28;20605;-65
2023/01/15 06:29:57;;;;;;;0.30;0.30;;;9.00;99.90;;;;;;5056716;28;20226;-67
2023/01/15 06:32:26;;;;;;;0.10;0.10;;;9.00;99.90;;;;;;5067951;28;20200;-66
2023/01/15 06:34:53;;;;;;;0.10;0.10;;;9.00;99.90;;;;;;5063176;28;20206;-66
2023/01/15 06:37:19;;;;;;;0.20;0.20;;;8.80;99.90;;;;;;5062685;28;20223;-68
2023/01/15 06:39:46;;;;;;;0.20;0.20;;;8.70;99.90;;;;;;5062910;28;20261;-67
2023/01/15 06:47:44;;;;;;;0.20;0.20;;;8.60;99.90;;;;;;5062933;28;20732;-68
2023/01/15 06:50:11;;;;;;;0.30;0.30;;;8.60;99.90;;;;;;5061126;28;20208;-67
2023/01/15 06:52:38;;;;;;;0.30;0.30;;;8.60;99.90;;;;;;5062294;28;20211;-66
2023/01/15 06:55:06;;;;;;;0.27;0.27;;;8.60;99.90;;;;;;5063283;28;20306;-65
2023/01/15 06:57:33;;;;;;;0.20;0.20;;;8.60;99.90;;;;;;5063911;28;20446;-65
2023/01/15 07:00:00;;;;;;;0.30;0.30;;;8.60;99.90;;;;;;5061097;28;20217;-65
2023/01/15 07:02:26;;;;;;;0.20;0.20;;;8.50;99.90;;;;;;5064418;28;20231;-63
2023/01/15 07:04:55;;;;;;;0.20;0.20;;;8.50;99.90;;;;;;5066770;28;20298;-66
2023/01/15 07:07:21;;;;;;;0.30;0.30;;;8.50;99.90;;;;;;5060811;28;20665;-66
2023/01/15 07:09:49;;;;;;;0.33;0.33;;;8.30;99.90;;;;;;5060941;28;20708;-65
2023/01/15 07:12:16;;;;;;;0.20;0.20;;;8.40;99.90;;;;;;5070172;28;20294;-66
2023/01/15 07:14:43;;;;;;;0.33;0.33;;;8.30;99.90;;;;;;5060553;28;20218;-65
2023/01/15 07:17:09;;;;;;;0.17;0.17;;;8.40;99.90;;;;;;5057283;28;20398;-67
2023/01/15 07:19:37;;;;;;;0.50;0.50;;;8.30;99.90;;;;;;5060726;28;20620;-67
2023/01/15 07:22:05;;;;;;;0.27;0.27;;;8.30;99.90;;;;;;5070042;28;20305;-65
2023/01/15 07:24:32;;;;;;;0.60;0.60;;;8.30;99.90;;;;;;5062127;28;20290;-66
2023/01/15 07:26:59;;;;;;;0.40;0.40;;;8.40;99.90;;;;;;5062429;28;20230;-65
2023/01/15 07:29:26;;;;;;;0.40;0.40;;;8.40;99.90;;;;;;5066120;28;20222;-67
2023/01/15 07:31:53;;;;;;;0.10;0.10;;;8.40;99.90;;;;;;5060756;28;20200;-66
2023/01/15 07:34:20;;;;;;;0.20;0.20;;;8.30;99.90;;;;;;5053620;28;20204;-66
2023/01/15 07:36:47;;;;;;;0.20;0.20;;;8.30;99.90;;;;;;5060727;28;20223;-67
2023/01/15 07:39:15;;;;;;;0.13;0.13;;;8.30;99.90;;;;;;5068314;28;20212;-66
2023/01/15 07:50:02;;;;;;;0.20;0.20;;;8.20;99.90;;;;;;5062736;28;20210;-66
2023/01/15 07:52:29;;;;;;;0.20;0.20;;;8.20;99.90;;;;;;5063735;28;20217;-66
2023/01/15 07:54:57;;;;;;;0.20;0.20;;;8.10;99.90;;;;;;5063642;28;20217;-65
2023/01/15 07:57:24;;;;;;;0.20;0.20;;;8.10;99.90;;;;;;5064607;28;20226;-67
2023/01/15 07:59:51;;;;;;;0.67;0.37;;;8.10;99.90;;;;;;5064801;28;20205;-66
2023/01/15 08:02:18;;;;;;;0.23;0.23;;;8.00;99.90;;;;;;5051328;28;20220;-65
2023/01/15 08:04:46;;;;;;;0.47;0.47;;;7.90;99.90;;;;;;5046931;28;20208;-66
2023/01/15 08:07:14;;;;;;;0.27;0.27;;;7.90;99.90;;;;;;5055195;28;20233;-64
2023/01/15 08:09:41;;;;;;;0.27;0.27;;;7.90;99.90;;;;;;5056080;28;20307;-65
2023/01/15 08:17:47;;;;;;;0.75;0.40;;;7.90;99.90;;;;;;5043101;28;20334;-65
2023/01/15 08:20:16;;;;;;;0.30;0.30;;;7.90;99.90;;;;;;5055635;28;20254;-65
2023/01/15 08:22:43;;;;;;;0.17;0.17;;;8.00;99.90;;;;;;5053508;28;20228;-65
2023/01/15 08:25:11;;;;;;;0.27;0.27;;;8.10;99.90;;;;;;5065491;28;20691;-67
2023/01/15 08:27:40;;;;;;;0.20;0.20;;;8.30;99.90;;;;;;5063648;28;20276;-65
2023/01/15 08:30:10;;;;;;;0.30;0.30;;;8.20;99.90;;;;;;5061879;28;20204;-67
2023/01/15 08:32:37;;;;;;;0.37;0.37;;;8.20;99.90;;;;;;5053360;28;20290;-64
2023/01/15 08:35:04;;;;;;;0.10;0.10;;;8.40;99.90;;;;;;5058317;28;20214;-67
2023/01/15 08:37:31;;;;;;;0.50;0.50;;;8.40;99.90;;;;;;5061465;28;20303;-67
2023/01/15 08:39:58;;;;;;;0.30;0.30;;;8.50;99.90;;;;;;5067602;28;20200;-65
2023/01/15 08:42:25;;;;;;;0.30;0.30;;;8.60;99.90;;;;;;5070833;28;20235;-66
2023/01/15 08:44:53;;;;;;;0.30;0.30;;;8.60;99.90;;;;;;5068586;28;20272;-64
2023/01/15 08:47:19;;;;;;;0.30;0.30;;;8.70;99.90;;;;;;5071854;28;20288;-65
2023/01/15 08:49:47;;;;;;;0.40;0.40;;;8.80;99.90;;;;;;5063824;28;20594;-66
2023/01/15 08:52:14;;;;;;;0.50;0.50;;;8.80;99.90;;;;;;5048710;28;20230;-67
2023/01/15 08:54:40;;;;;;;0.37;0.37;;;8.80;99.90;;;;;;5046285;28;20212;-66
2023/01/15 08:57:08;;;;;;;0.30;0.30;;;8.80;99.90;;;;;;5047022;28;20221;-67
2023/01/15 08:59:35;;;;;;;0.30;0.30;;;8.80;99.90;;;;;;5044401;28;20216;-66
2023/01/15 09:02:03;;;;;;;0.30;0.30;;;8.80;99.90;;;;;;5042193;28;20216;-65
2023/01/15 09:04:30;;;;;;;0.20;0.20;;;8.80;99.90;;;;;;5044220;28;20231;-64
2023/01/15 09:06:57;;;;;;;0.27;0.27;;;8.70;99.90;;;;;;5048742;28;20314;-67
2023/01/15 09:09:24;;;;;;;0.40;0.40;;;8.70;99.90;;;;;;5047946;28;20200;-66
2023/01/15 09:11:50;;;;;;;0.53;0.53;;;8.60;99.90;;;;;;5046843;28;20203;-66
2023/01/15 09:14:17;;;;;;;0.50;0.50;;;8.60;99.90;;;;;;5051294;28;20311;-65
2023/01/15 09:16:44;;;;;;;0.60;0.60;;;8.70;99.90;;;;;;5048372;28;20310;-66
2023/01/15 09:19:12;;;;;;;0.87;0.80;;;8.70;99.90;;;;;;5046362;28;20276;-67
2023/01/15 09:21:39;;;;;;;0.75;0.75;;;8.80;99.90;;;;;;5050581;28;20238;-66
2023/01/15 09:24:07;;;;;;;0.63;0.63;;;8.70;99.90;;;;;;5049839;28;20319;-67
2023/01/15 09:26:35;;;;;;;0.40;0.40;;;8.70;99.90;;;;;;5045209;28;20218;-67
2023/01/15 09:29:04;;;;;;;0.20;0.20;;;8.60;99.90;;;;;;5044405;28;20694;-65
2023/01/15 09:31:31;;;;;;;0.30;0.30;;;8.50;99.90;;;;;;5058207;28;20207;-68
2023/01/15 09:33:58;;;;;;;0.30;0.30;;;8.40;99.90;;;;;;5056771;28;20299;-65
2023/01/15 09:36:28;;;;;;;0.20;0.20;;;8.40;99.90;;;;;;5062130;28;20215;-66
2023/01/15 09:38:56;;;;;;;0.30;0.30;;;8.40;99.90;;;;;;5050647;28;20207;-66
2023/01/15 09:44:23;;;;;;;0.30;0.30;;;8.30;99.90;;;;;;5055094;28;20216;-64
2023/01/15 09:47:00;;;;;;;0.35;0.35;;;8.30;99.90;;;;;;5048512;28;20599;-66
2023/01/15 09:49:38;;;;;;;0.40;0.40;;;8.30;99.90;;;;;;5040173;28;20553;-66
2023/01/15 09:52:13;;;;;;;0.20;0.20;;;8.30;99.90;;;;;;5061288;28;20196;-66
2023/01/15 09:54:53;;;;;;;0.30;0.30;;;8.20;99.90;;;;;;5042463;28;20298;-65
2023/01/15 09:57:22;;;;;;;0.20;0.20;;;8.20;99.90;;;;;;5042722;28;20220;-66
2023/01/15 09:59:50;;;;;;;0.30;0.30;;;8.20;99.90;;;;;;5047315;28;20718;-66
2023/01/15 10:02:25;;;;;;;0.40;0.40;;;8.30;99.90;;;;;;5048021;28;20228;-64
2023/01/15 10:04:57;;;;;;;0.20;0.20;;;8.30;99.90;;;;;;5048996;28;20318;-64
2023/01/15 10:07:30;;;;;;;0.27;0.27;;;8.30;99.90;;;;;;5044337;28;20308;-67
2023/01/15 10:10:02;;;;;;;0.30;0.30;;;8.40;99.90;;;;;;5045468;28;20215;-67
2023/01/15 10:12:35;;;;;;;0.20;0.20;;;8.40;99.90;;;;;;5044625;28;20196;-67
2023/01/15 10:15:22;;;;;;;0.30;0.30;;;8.40;99.90;;;;;;5045472;28;20230;-65
2023/01/15 10:17:52;;;;;;;0.50;0.50;;;8.40;99.90;;;;;;5044290;28;20273;-65
2023/01/15 10:20:36;;;;;;;0.60;0.60;;;8.40;99.90;;;;;;5044230;28;20196;-64
2023/01/15 10:23:26;;;;;;;0.60;0.60;;;8.30;99.90;;;;;;5052394;28;20220;-67
2023/01/15 10:26:02;;;;;;;0.40;0.40;;;8.30;99.90;;;;;;5052508;28;20295;-65
2023/01/15 10:28:30;;;;;;;0.30;0.30;;;8.30;99.90;;;;;;5042426;28;20230;-66
2023/01/15 10:31:03;;;;;;;0.60;0.60;;;8.40;99.90;;;;;;5048366;28;20204;-66
2023/01/15 10:33:51;;;;;;;0.40;0.40;;;8.40;99.90;;;;;;5047320;28;20208;-66
2023/01/15 10:36:22;;;;;;;0.43;0.43;;;8.40;99.90;;;;;;5047915;28;20207;-67
2023/01/15 10:38:59;;;;;;;0.33;0.33;;;8.30;99.90;;;;;;5049842;28;20210;-67
2023/01/15 10:41:45;;;;;;;0.40;0.40;;;8.30;99.90;;;;;;5061326;28;20200;-67
2023/01/15 10:44:18;;;;;;;0.30;0.30;;;8.20;99.90;;;;;;5082316;28;20255;-66
2023/01/15 10:46:53;;;;;;;0.40;0.40;;;8.10;99.90;;;;;;5072351;28;20291;-65
2023/01/15 10:49:20;;;;;;;0.30;0.30;;;8.00;99.90;;;;;;5071108;28;20189;-65
2023/01/15 10:51:52;;;;;;;0.20;0.20;;;8.00;99.90;;;;;;5063969;28;20267;-65
2023/01/15 10:54:27;;;;;;;0.30;0.30;;;7.80;99.90;;;;;;5058098;28;20220;-62
2023/01/15 10:57:00;;;;;;;0.60;0.40;;;7.50;99.90;;;;;;5054524;28;20594;-67
2023/01/15 10:59:36;;;;;;;0.47;0.47;;;6.90;99.90;;;;;;5050424;28;20216;-63
2023/01/15 11:02:17;;;;;;;0.30;0.30;;;6.50;99.90;;;;;;5045597;28;20291;-65
2023/01/15 11:04:44;;;;;;;0.40;0.40;;;6.00;99.90;;;;;;5047627;28;20228;-67
2023/01/15 11:07:12;;;;;;;0.50;0.50;;;5.90;99.90;;;;;;5052994;28;20251;-68
2023/01/15 11:09:41;;;;;;;0.30;0.30;;;5.80;99.90;;;;;;5048140;28;20204;-65
2023/01/15 11:20:49;;;;;;;0.20;0.20;;;6.00;99.90;;;;;;5041988;28;20679;-66
2023/01/15 11:23:18;;;;;;;0.40;0.40;;;6.20;99.90;;;;;;5047970;28;20227;-66
2023/01/15 11:25:51;;;;;;;0.50;0.50;;;6.30;99.90;;;;;;5042521;28;20211;-67
2023/01/15 11:28:18;;;;;;;0.30;0.30;;;6.40;99.90;;;;;;5039110;28;20237;-67
2023/01/15 11:30:54;;;;;;;0.50;0.50;;;6.50;99.90;;;;;;5042903;28;20201;-68
2023/01/15 11:33:23;;;;;;;0.87;0.53;;;6.70;99.90;;;;;;5045727;28;20206;-67
2023/01/15 11:35:51;;;;;;;0.50;0.50;;;6.80;99.90;;;;;;5042466;28;20196;-66
2023/01/15 11:38:21;;;;;;;0.37;0.37;;;6.90;99.90;;;;;;5040304;28;20231;-65
2023/01/15 11:40:54;;;;;;;0.47;0.47;;;7.00;99.90;;;;;;5045523;28;20205;-67
2023/01/15 11:51:42;;;;;;;0.80;0.80;;;7.10;99.90;;;;;;5056023;28;20215;-65
2023/01/15 11:54:12;;;;;;;0.60;0.60;;;7.10;99.90;;;;;;5055316;28;20235;-65
2023/01/15 11:56:44;;;;;;;0.50;0.50;;;7.10;99.90;;;;;;5058844;28;20199;-65
2023/01/15 11:59:13;;;;;;;0.53;0.53;;;7.10;99.90;;;;;;5047994;28;20204;-66
2023/01/15 12:01:49;;;;;;;0.40;0.40;;;7.30;99.90;;;;;;5041448;28;20232;-66
2023/01/15 12:04:29;;;;;;;0.40;0.40;;;7.40;99.90;;;;;;5065784;28;20219;-65
2023/01/15 12:06:56;;;;;;;0.37;0.37;;;7.40;99.90;;;;;;5057227;28;20249;-64
2023/01/15 12:09:35;;;;;;;0.83;0.83;;;7.50;99.90;;;;;;5060167;28;20206;-64
2023/01/15 12:12:15;;;;;;;0.40;0.40;;;7.50;99.90;;;;;;5052440;28;20701;-67
2023/01/15 12:14:51;;;;;;;0.50;0.50;;;7.40;99.90;;;;;;5064575;28;20254;-66
2023/01/15 12:17:32;;;;;;;0.30;0.30;;;7.30;99.90;;;;;;5059600;28;20223;-66
2023/01/15 12:20:07;;;;;;;0.40;0.40;;;7.30;99.90;;;;;;5057722;28;20681;-65
2023/01/15 12:22:50;;;;;;;0.30;0.30;;;7.30;99.90;;;;;;5055926;28;20702;-66
2023/01/15 12:25:31;;;;;;;0.20;0.20;;;7.30;99.90;;;;;;5048461;28;20290;-67
2023/01/15 12:28:07;;;;;;;0.30;0.30;;;7.30;99.90;;;;;;5044507;28;20228;-67
2023/01/15 12:30:44;;;;;;;0.30;0.30;;;7.30;99.90;;;;;;5045765;28;20639;-64
2023/01/15 12:33:20;;;;;;;0.30;0.30;;;7.30;99.90;;;;;;5046091;28;20697;-68
2023/01/15 12:35:55;;;;;;;0.30;0.30;;;7.40;99.90;;;;;;5059266;28;20203;-67
2023/01/15 12:38:33;;;;;;;0.20;0.20;;;7.50;99.90;;;;;;5055647;28;20219;-65
2023/01/15 12:41:06;;;;;;;0.40;0.40;;;7.50;99.90;;;;;;5064341;28;20204;-66
2023/01/15 12:46:27;;;;;;;0.37;0.37;;;7.50;99.90;;;;;;5042275;28;20232;-67
2023/01/15 12:49:02;;;;;;;0.30;0.30;;;7.50;99.90;;;;;;5044613;28;20689;-66
2023/01/15 12:51:35;;;;;;;0.53;0.53;;;7.50;99.90;;;;;;5036346;28;20247;-66
2023/01/15 12:54:06;;;;;;;0.30;0.30;;;7.70;99.90;;;;;;5042337;28;20279;-68
2023/01/15 12:56:45;;;;;;;0.50;0.50;;;7.70;99.90;;;;;;5039858;28;20207;-64
2023/01/15 12:59:19;;;;;;;0.40;0.40;;;7.90;99.90;;;;;;5044106;28;20693;-66
2023/01/15 13:01:55;;;;;;;0.40;0.40;;;7.80;99.90;;;;;;5047607;28;20231;-66
2023/01/15 13:04:28;;;;;;;0.30;0.30;;;7.90;99.90;;;;;;5045975;28;20247;-68
2023/01/15 13:07:01;;;;;;;0.40;0.40;;;8.00;99.90;;;;;;5051876;28;20224;-72
2023/01/15 13:09:38;;;;;;;0.20;0.20;;;8.00;99.90;;;;;;5056376;28;20200;-71
2023/01/15 13:12:11;;;;;;;0.50;0.40;;;8.10;99.90;;;;;;5050636;28;20203;-69
2023/01/15 13:14:40;;;;;;;0.37;0.37;;;8.10;99.90;;;;;;5053088;28;20220;-67
2023/01/15 13:17:14;;;;;;;0.60;0.60;;;8.20;99.90;;;;;;5050274;28;20334;-66
2023/01/15 13:19:52;;;;;;;0.50;0.50;;;8.10;99.90;;;;;;5053802;28;20809;-68
2023/01/15 13:22:25;;;;;;;0.63;0.60;;;8.10;99.90;;;;;;5056037;28;20211;-68
2023/01/15 13:25:11;;;;;;;0.30;0.30;;;8.20;99.90;;;;;;5050377;28;20204;-66
2023/01/15 13:27:56;;;;;;;0.60;0.60;;;8.10;99.90;;;;;;5047333;28;20228;-64
2023/01/15 13:30:51;;;;;;;0.60;0.60;;;8.10;99.90;;;;;;5052351;28;20636;-65
2023/01/15 13:33:26;;;;;;;0.40;0.40;;;8.20;99.90;;;;;;5051630;28;20207;-65
2023/01/15 13:35:57;;;;;;;0.90;0.90;;;8.30;99.90;;;;;;5042450;28;20207;-67
2023/01/15 13:38:27;;;;;;;0.80;0.80;;;8.40;99.90;;;;;;5050023;28;20289;-66
2023/01/15 13:40:56;;;;;;;0.50;0.50;;;8.40;99.90;;;;;;5054392;28;20701;-65
2023/01/15 13:43:34;;;;;;;0.70;0.70;;;8.50;99.90;;;;;;5046755;28;20256;-64
2023/01/15 13:46:03;;;;;;;0.50;0.50;;;8.60;99.90;;;;;;5048317;28;20199;-65
2023/01/15 13:48:35;;;;;;;0.50;0.50;;;8.50;99.90;;;;;;5045202;28;20231;-63
2023/01/15 13:51:04;;;;;;;0.30;0.30;;;8.50;99.90;;;;;;5050516;28;20204;-70
2023/01/15 13:53:34;;;;;;;0.40;0.40;;;8.50;99.90;;;;;;5042752;28;20200;-66
2023/01/15 13:56:04;;;;;;;0.43;0.40;;;8.50;99.90;;;;;;5052338;28;20651;-64
2023/01/15 13:58:33;;;;;;;0.30;0.30;;;8.50;99.90;;;;;;5049008;28;20253;-66